This is the latest recevied weather packets stored in our database for station/object CE3JSG-13. If no packets are shown the sender has not sent any weather packets the latest 10 day(s).
| Time | Temp. | Humidity | Pressure | Rain* | Wind** | Luminosity | Snow |
|---|---|---|---|---|---|---|---|
| 1777844536 | 23.89° C | 16% | 1015.2 hPa | - | - | - | - |
| 1777844116 | 24.44° C | 16% | 1014.6 hPa | - | - | - | - |
| 1777843696 | 24.44° C | 16% | 1015 hPa | - | - | - | - |
| 1777843276 | 25° C | 16% | 1014.4 hPa | - | - | - | - |
| 1777842856 | 25° C | 15% | 1013.9 hPa | - | - | - | - |
| 1777842436 | 24.44° C | 15% | 1014.8 hPa | - | - | - | - |
| 1777842016 | 25° C | 14% | 1014.6 hPa | - | - | - | - |
| 1777841596 | 25° C | 12% | 1014.9 hPa | - | - | - | - |
| 1777841176 | 25.56° C | 12% | 1013.4 hPa | - | - | - | - |
| 1777840756 | 25.56° C | 14% | 1014 hPa | - | - | - | - |
| 1777840336 | 25.56° C | 16% | 1014.1 hPa | - | - | - | - |
| 1777839916 | 26.11° C | 16% | 1014.9 hPa | - | - | - | - |
| 1777839496 | 26.67° C | 15% | 1013.4 hPa | - | - | - | - |
| 1777839076 | 26.67° C | 16% | 1013 hPa | - | - | - | - |
| 1777838656 | 26.11° C | 17% | 1013.5 hPa | - | - | - | - |
| 1777838236 | 26.11° C | 17% | 1013.9 hPa | - | - | - | - |
| 1777837816 | 26.11° C | 19% | 1013.7 hPa | - | - | - | - |
| 1777837396 | 26.11° C | 20% | 1014.1 hPa | - | - | - | - |
| 1777836976 | 26.67° C | 21% | 1015.2 hPa | - | - | - | - |
| 1777836556 | 27.78° C | 20% | 1013.4 hPa | - | - | - | - |
| 1777836136 | 27.22° C | 20% | 1013.2 hPa | - | - | - | - |
| 1777835716 | 27.22° C | 20% | 1013.4 hPa | - | - | - | - |
| 1777835296 | 27.22° C | 19% | 1012.5 hPa | - | - | - | - |
| 1777834876 | 26.67° C | 21% | 1014.5 hPa | - | - | - | - |
| 1777834456 | 27.22° C | 22% | 1012.9 hPa | - | - | - | - |
* Rain since midnight (hover to see other rain measurements)
** Current wind speed in m/s (hover to see current wind gust speed)